createdAt,value
2019-05-03T00:03:53.954Z,11.02
2019-05-03T00:09:17.291Z,10.99
2019-05-03T00:14:41.692Z,10.94
2019-05-03T00:20:03.495Z,10.92
2019-05-03T00:25:25.461Z,10.91
2019-05-03T00:30:47.137Z,10.84
2019-05-03T00:36:24.302Z,10.66
2019-05-03T00:41:45.735Z,10.54
2019-05-03T00:47:07.565Z,10.54
2019-05-03T00:52:29.233Z,10.47
2019-05-03T00:57:52.152Z,10.50
2019-05-03T01:03:13.921Z,10.42
2019-05-03T01:08:35.905Z,10.36
2019-05-03T01:13:57.795Z,10.24
2019-05-03T01:19:19.808Z,10.18
2019-05-03T01:24:42.780Z,10.27
2019-05-03T01:30:05.690Z,10.21
2019-05-03T01:35:27.480Z,10.31
2019-05-03T01:40:49.134Z,10.40
2019-05-03T01:46:11.978Z,10.34
2019-05-03T01:51:53.317Z,10.29
2019-05-03T01:57:15.325Z,10.25
2019-05-03T02:03:01.548Z,10.19
2019-05-03T02:08:23.425Z,10.15
2019-05-03T02:13:45.536Z,10.10
2019-05-03T02:19:07.444Z,10.04
2019-05-03T02:24:29.175Z,9.98
2019-05-03T02:29:52.401Z,9.94
2019-05-03T02:35:14.440Z,9.99
2019-05-03T02:40:36.253Z,9.92
2019-05-03T02:46:16.963Z,9.86
2019-05-03T02:51:38.986Z,9.77
2019-05-03T02:57:00.894Z,9.83
2019-05-03T03:02:22.439Z,9.84
2019-05-03T03:07:46.286Z,9.93
2019-05-03T03:13:11.647Z,9.87
2019-05-03T03:18:36.505Z,9.88
2019-05-03T03:24:08.024Z,9.91
2019-05-03T03:29:30.854Z,9.95
2019-05-03T03:35:20.626Z,10.00
2019-05-03T03:40:41.704Z,10.09
2019-05-03T03:46:05.395Z,10.15
2019-05-03T03:51:29.429Z,10.19
2019-05-03T03:56:59.343Z,10.32
2019-05-03T04:02:17.761Z,10.52
2019-05-03T04:07:39.645Z,10.52
2019-05-03T04:13:01.606Z,10.60
2019-05-03T04:18:31.522Z,10.58
2019-05-03T04:23:55.607Z,10.60
2019-05-03T04:29:16.851Z,10.75
2019-05-03T04:34:38.570Z,11.12
2019-05-03T04:40:00.298Z,11.20
2019-05-03T04:45:22.177Z,11.48
2019-05-03T04:50:45.747Z,11.65
2019-05-03T04:56:07.922Z,11.63
2019-05-03T05:01:29.769Z,11.83
2019-05-03T05:06:51.524Z,12.07
2019-05-03T05:12:15.884Z,12.29
2019-05-03T05:17:52.852Z,12.55
2019-05-03T05:23:14.866Z,12.82
2019-05-03T05:28:44.921Z,12.89
2019-05-03T05:34:08.848Z,13.11
2019-05-03T05:39:30.569Z,13.32
2019-05-03T05:44:52.079Z,13.42
2019-05-03T05:50:27.458Z,13.62
2019-05-03T05:56:19.415Z,13.92
2019-05-03T06:02:06.639Z,14.30
2019-05-03T06:08:00.037Z,14.75
2019-05-03T06:13:26.456Z,15.19
2019-05-03T06:19:16.693Z,15.55
2019-05-03T06:24:45.145Z,15.84
2019-05-03T06:30:19.299Z,16.14
2019-05-03T06:35:41.083Z,16.49
2019-05-03T06:41:04.271Z,16.81
2019-05-03T06:46:46.709Z,17.05
2019-05-03T06:52:08.460Z,16.91
2019-05-03T06:57:30.199Z,16.76
2019-05-03T07:03:00.577Z,16.53
2019-05-03T07:08:40.617Z,16.57
2019-05-03T07:14:02.453Z,16.72
2019-05-03T07:19:25.010Z,16.98
2019-05-03T07:24:46.956Z,17.50
2019-05-03T07:30:09.168Z,17.74
2019-05-03T07:35:31.063Z,17.74
2019-05-03T07:40:54.839Z,17.87
2019-05-03T07:46:16.706Z,18.16
2019-05-03T07:51:38.868Z,18.38
2019-05-03T07:57:05.913Z,18.66
2019-05-03T08:02:27.934Z,18.87
2019-05-03T08:07:49.410Z,19.14
2019-05-03T08:13:10.957Z,19.36
2019-05-03T08:18:32.588Z,19.56
2019-05-03T08:23:55.679Z,19.60
2019-05-03T08:29:19.515Z,19.62
2019-05-03T08:34:48.566Z,19.79
2019-05-03T08:40:10.872Z,19.94
2019-05-03T08:45:34.582Z,20.03
2019-05-03T08:50:56.491Z,20.17
2019-05-03T08:56:18.336Z,20.24
2019-05-03T09:01:40.274Z,20.55
2019-05-03T09:07:01.915Z,20.80
2019-05-03T09:12:25.242Z,20.76
2019-05-03T09:17:46.850Z,20.92
2019-05-03T09:23:08.577Z,21.31
2019-05-03T09:28:30.137Z,21.65
2019-05-03T09:33:51.862Z,21.85
2019-05-03T09:39:14.895Z,22.05
2019-05-03T09:44:36.374Z,22.04
2019-05-03T09:49:58.107Z,22.34
2019-05-03T09:55:25.457Z,22.45
2019-05-03T10:00:48.387Z,22.93
2019-05-03T10:06:10.131Z,22.93
2019-05-03T10:11:31.967Z,22.87
2019-05-03T10:17:05.270Z,22.95
2019-05-03T10:22:28.169Z,23.00
2019-05-03T10:27:49.531Z,23.00
2019-05-03T10:33:16.967Z,23.11
2019-05-03T10:38:38.937Z,22.77
2019-05-03T10:44:01.208Z,22.81
2019-05-03T10:49:24.492Z,22.92
2019-05-03T10:54:46.802Z,23.24
2019-05-03T11:00:39.402Z,23.54
2019-05-03T11:05:34.789Z,23.75
2019-05-03T11:10:56.553Z,23.45
2019-05-03T11:16:18.499Z,24.07
2019-05-03T11:21:40.349Z,24.38
2019-05-03T11:27:04.816Z,24.76
2019-05-03T11:32:41.866Z,24.53
2019-05-03T11:38:14.942Z,24.28
2019-05-03T11:43:36.268Z,23.69
2019-05-03T11:48:58.153Z,23.47
2019-05-03T11:54:19.954Z,23.56
2019-05-03T11:59:41.638Z,23.58
2019-05-03T12:05:05.049Z,23.20
2019-05-03T12:10:46.323Z,23.32
2019-05-03T12:15:50.250Z,23.69
2019-05-03T12:21:13.410Z,23.28
2019-05-03T12:26:43.873Z,23.33
2019-05-03T12:31:59.284Z,23.72
2019-05-03T12:37:21.235Z,23.48
2019-05-03T12:42:42.665Z,23.55
2019-05-03T12:48:05.017Z,23.27
2019-05-03T12:53:27.582Z,23.08
2019-05-03T12:59:08.879Z,23.03
2019-05-03T13:04:33.217Z,22.44
2019-05-03T13:09:55.025Z,21.61
2019-05-03T13:15:16.473Z,20.68
2019-05-03T13:20:38.096Z,20.06
2019-05-03T13:25:59.669Z,19.96
2019-05-03T13:31:21.160Z,19.53
2019-05-03T13:36:42.544Z,19.46
2019-05-03T13:42:05.667Z,19.38
2019-05-03T13:47:27.714Z,19.35
2019-05-03T13:52:49.519Z,19.70
2019-05-03T13:58:11.501Z,19.99
2019-05-03T14:03:35.024Z,20.39
2019-05-03T14:08:57.005Z,20.68
2019-05-03T14:14:18.799Z,20.80
2019-05-03T14:19:41.561Z,21.22
2019-05-03T14:25:04.588Z,21.70
2019-05-03T14:30:26.647Z,22.71
2019-05-03T14:35:48.371Z,23.76
2019-05-03T14:41:10.438Z,24.00
2019-05-03T14:46:33.305Z,24.12
2019-05-03T14:51:56.784Z,24.57
2019-05-03T14:57:31.635Z,24.90
2019-05-03T15:03:04.745Z,24.68
2019-05-03T15:08:26.816Z,25.17
2019-05-03T15:13:48.948Z,25.57
2019-05-03T15:19:10.284Z,25.84
2019-05-03T15:24:32.203Z,26.01
2019-05-03T15:29:55.343Z,25.53
2019-05-03T15:35:17.679Z,24.57
2019-05-03T15:40:39.755Z,24.50
2019-05-03T15:46:21.037Z,24.89
2019-05-03T15:51:44.716Z,24.98
2019-05-03T15:57:06.465Z,25.54
2019-05-03T16:02:27.997Z,25.27
2019-05-03T16:07:49.757Z,24.37
2019-05-03T16:13:11.766Z,24.17
2019-05-03T16:18:35.182Z,23.90
2019-05-03T16:23:57.639Z,22.82
2019-05-03T16:29:20.084Z,21.13
2019-05-03T16:34:41.928Z,20.52
2019-05-03T16:40:05.201Z,19.63
2019-05-03T16:45:27.377Z,19.17
2019-05-03T16:50:48.917Z,18.63
2019-05-03T16:56:10.732Z,18.21
2019-05-03T17:01:32.739Z,17.78
2019-05-03T17:07:02.447Z,17.51
2019-05-03T17:12:35.762Z,17.22
2019-05-03T17:17:58.038Z,17.01
2019-05-03T17:23:19.896Z,16.88
2019-05-03T17:28:41.856Z,16.86
2019-05-03T17:34:05.405Z,16.76
2019-05-03T17:39:49.554Z,16.68
2019-05-03T17:45:11.924Z,16.47
2019-05-03T17:50:34.801Z,16.31
2019-05-03T17:56:21.950Z,16.29
2019-05-03T18:02:04.138Z,16.20
2019-05-03T18:07:47.791Z,15.97
2019-05-03T18:13:10.023Z,15.82
2019-05-03T18:18:31.770Z,15.74
2019-05-03T18:23:54.603Z,15.55
2019-05-03T18:29:16.544Z,15.42
2019-05-03T18:34:38.397Z,15.08
2019-05-03T18:40:00.142Z,15.00
2019-05-03T18:45:31.914Z,14.82
2019-05-03T18:50:54.814Z,14.72
2019-05-03T18:56:18.248Z,14.63
2019-05-03T19:01:40.770Z,14.56
2019-05-03T19:07:05.280Z,14.43
2019-05-03T19:12:45.849Z,14.20
2019-05-03T19:18:29.285Z,14.17
2019-05-03T19:23:50.800Z,14.11
2019-05-03T19:29:14.763Z,14.03
2019-05-03T19:34:47.396Z,13.97
2019-05-03T19:40:01.669Z,13.92
2019-05-03T19:45:24.825Z,13.76
2019-05-03T19:50:47.054Z,13.73
2019-05-03T19:56:12.066Z,13.79
2019-05-03T20:01:52.619Z,13.74
2019-05-03T20:07:39.979Z,13.71
2019-05-03T20:13:02.232Z,13.67
2019-05-03T20:18:23.982Z,13.69
2019-05-03T20:23:47.135Z,13.62
2019-05-03T20:29:09.249Z,13.63
2019-05-03T20:34:30.708Z,13.64
2019-05-03T20:39:54.418Z,13.60
2019-05-03T20:45:20.965Z,13.63
2019-05-03T20:50:44.605Z,13.68
2019-05-03T20:56:06.321Z,13.61
2019-05-03T21:01:28.060Z,13.56
2019-05-03T21:06:49.921Z,13.55
2019-05-03T21:12:11.628Z,13.53
2019-05-03T21:17:52.363Z,13.47
2019-05-03T21:23:15.158Z,13.33
2019-05-03T21:28:37.331Z,13.30
2019-05-03T21:33:59.218Z,13.30
2019-05-03T21:39:20.959Z,13.27
2019-05-03T21:44:42.408Z,13.32
2019-05-03T21:50:05.611Z,13.29
2019-05-03T21:55:27.636Z,13.04
2019-05-03T22:00:57.569Z,12.87
2019-05-03T22:06:19.730Z,12.75
2019-05-03T22:11:41.164Z,12.74
2019-05-03T22:17:31.473Z,12.72
2019-05-03T22:22:59.771Z,12.64
2019-05-03T22:28:21.311Z,12.58
2019-05-03T22:33:44.688Z,12.44
2019-05-03T22:39:07.130Z,12.54
2019-05-03T22:44:28.588Z,12.61
2019-05-03T22:49:50.598Z,12.49
2019-05-03T22:55:12.045Z,12.56
2019-05-03T23:00:35.265Z,12.40
2019-05-03T23:05:57.218Z,12.44
2019-05-03T23:11:18.662Z,12.38
2019-05-03T23:16:40.366Z,12.39
2019-05-03T23:22:08.095Z,12.44
2019-05-03T23:27:29.900Z,12.48
2019-05-03T23:32:51.623Z,12.29
2019-05-03T23:38:15.141Z,12.25
2019-05-03T23:43:37.093Z,12.18
2019-05-03T23:48:58.403Z,12.15
2019-05-03T23:54:20.246Z,12.07
2019-05-03T23:59:41.899Z,12.00
